Terminal Aerodrome Forecast
Issued by NWS

Home | Current Version | Previous Version | Text Only | Print | Product List | Glossary On
Versions: 1 2 3 4 5 6 7 8 9 10 11 12 13 14
993
FTUS43 KFGF 042341
TAFTVF
TAF
KTVF 042341Z 0500/0524 24008KT P6SM -SN OVC008
      TEMPO 0501/0503 4SM -SN OVC003
     FM050500 24007KT P6SM BKN003
     FM051000 17005KT P6SM BKN003
     FM051500 11008KT P6SM BKN008
     FM052000 11008KT 3SM -SN OVC008
     FM052100 10008KT 1 1/2SM -SN OVC003
     FM052300 13008KT 1 1/2SM -SN OVC003=

USA.gov is the U.S. government's official web portal to all federal, state and local government web resources and services.